Terminal Aerodrome Forecast
Issued by NWS

Home | Current Version | Previous Version | Graphics & Text | Print | Product List | Glossary On
Versions: 1 2 3 4 5 6 7 8 9 10 11 12 13
000
FTUS43 KICT 040520
TAFCNU
TAF
KCNU 040520Z 0406/0506 18007KT P6SM SCT150 OVC300
     FM041100 19009KT P6SM OVC150
     FM041700 19017G22KT P6SM SCT060 OVC150=

USA.gov is the U.S. government's official web portal to all federal, state and local government web resources and services.